sensor_id;sensor_type;location;lat;lon;timestamp;pressure;altitude;pressure_sealevel;temperature
62611;BMP280;48683;48.084;17.272;2022-07-23T00:02:18;100189.03;;;26.48
62611;BMP280;48683;48.084;17.272;2022-07-23T00:04:44;100182.75;;;26.42
62611;BMP280;48683;48.084;17.272;2022-07-23T00:07:09;100193.69;;;26.31
62611;BMP280;48683;48.084;17.272;2022-07-23T00:09:34;100192.47;;;26.32
62611;BMP280;48683;48.084;17.272;2022-07-23T00:12:00;100196.00;;;26.43
62611;BMP280;48683;48.084;17.272;2022-07-23T00:14:25;100185.59;;;26.16
62611;BMP280;48683;48.084;17.272;2022-07-23T00:16:50;100182.53;;;26.03
62611;BMP280;48683;48.084;17.272;2022-07-23T00:19:15;100177.25;;;25.99
62611;BMP280;48683;48.084;17.272;2022-07-23T00:21:41;100176.84;;;26.12
62611;BMP280;48683;48.084;17.272;2022-07-23T00:24:06;100180.09;;;26.11
62611;BMP280;48683;48.084;17.272;2022-07-23T00:26:32;100183.75;;;25.96
62611;BMP280;48683;48.084;17.272;2022-07-23T00:28:57;100185.19;;;25.86
62611;BMP280;48683;48.084;17.272;2022-07-23T00:31:23;100191.22;;;25.90
62611;BMP280;48683;48.084;17.272;2022-07-23T00:33:48;100196.50;;;25.99
62611;BMP280;48683;48.084;17.272;2022-07-23T00:36:13;100194.06;;;26.07
62611;BMP280;48683;48.084;17.272;2022-07-23T00:38:39;100192.63;;;25.80
62611;BMP280;48683;48.084;17.272;2022-07-23T00:41:04;100188.28;;;25.63
62611;BMP280;48683;48.084;17.272;2022-07-23T00:43:30;100188.78;;;25.35
62611;BMP280;48683;48.084;17.272;2022-07-23T00:45:55;100183.69;;;25.23
62611;BMP280;48683;48.084;17.272;2022-07-23T00:48:20;100179.91;;;25.20
62611;BMP280;48683;48.084;17.272;2022-07-23T00:50:46;100178.78;;;25.07
62611;BMP280;48683;48.084;17.272;2022-07-23T00:53:12;100176.94;;;24.98
62611;BMP280;48683;48.084;17.272;2022-07-23T00:55:38;100179.22;;;24.79
62611;BMP280;48683;48.084;17.272;2022-07-23T00:58:04;100177.44;;;24.96
62611;BMP280;48683;48.084;17.272;2022-07-23T01:00:29;100160.75;;;25.00
62611;BMP280;48683;48.084;17.272;2022-07-23T01:02:55;100173.94;;;24.96
62611;BMP280;48683;48.084;17.272;2022-07-23T01:05:20;100172.44;;;24.95
62611;BMP280;48683;48.084;17.272;2022-07-23T01:07:51;100166.63;;;24.87
62611;BMP280;48683;48.084;17.272;2022-07-23T01:10:17;100180.06;;;24.85
62611;BMP280;48683;48.084;17.272;2022-07-23T01:13:01;100170.22;;;24.79
62611;BMP280;48683;48.084;17.272;2022-07-23T01:15:28;100168.41;;;24.70
62611;BMP280;48683;48.084;17.272;2022-07-23T01:17:54;100163.47;;;24.74
62611;BMP280;48683;48.084;17.272;2022-07-23T01:20:20;100166.06;;;24.63
62611;BMP280;48683;48.084;17.272;2022-07-23T01:22:45;100166.75;;;24.78
62611;BMP280;48683;48.084;17.272;2022-07-23T01:25:11;100168.44;;;24.96
62611;BMP280;48683;48.084;17.272;2022-07-23T01:27:36;100153.06;;;24.84
62611;BMP280;48683;48.084;17.272;2022-07-23T01:30:03;100160.41;;;24.67
62611;BMP280;48683;48.084;17.272;2022-07-23T01:32:29;100158.03;;;24.80
62611;BMP280;48683;48.084;17.272;2022-07-23T01:34:54;100165.59;;;24.85
62611;BMP280;48683;48.084;17.272;2022-07-23T01:37:19;100157.72;;;24.98
62611;BMP280;48683;48.084;17.272;2022-07-23T01:39:45;100156.94;;;24.92
62611;BMP280;48683;48.084;17.272;2022-07-23T01:42:10;100153.97;;;24.75
62611;BMP280;48683;48.084;17.272;2022-07-23T01:44:35;100160.53;;;24.57
62611;BMP280;48683;48.084;17.272;2022-07-23T01:47:01;100155.81;;;24.58
62611;BMP280;48683;48.084;17.272;2022-07-23T01:49:26;100163.28;;;24.57
62611;BMP280;48683;48.084;17.272;2022-07-23T01:51:52;100154.22;;;24.51
62611;BMP280;48683;48.084;17.272;2022-07-23T01:54:31;100150.00;;;24.50
62611;BMP280;48683;48.084;17.272;2022-07-23T01:56:57;100148.53;;;24.55
62611;BMP280;48683;48.084;17.272;2022-07-23T01:59:23;100142.00;;;24.52
62611;BMP280;48683;48.084;17.272;2022-07-23T02:01:49;100138.13;;;24.39
62611;BMP280;48683;48.084;17.272;2022-07-23T02:04:16;100148.00;;;24.31
62611;BMP280;48683;48.084;17.272;2022-07-23T02:06:42;100142.72;;;24.27
62611;BMP280;48683;48.084;17.272;2022-07-23T02:09:07;100144.72;;;24.27
62611;BMP280;48683;48.084;17.272;2022-07-23T02:11:32;100152.78;;;24.36
62611;BMP280;48683;48.084;17.272;2022-07-23T02:13:58;100148.75;;;24.31
62611;BMP280;48683;48.084;17.272;2022-07-23T02:16:23;100160.06;;;24.39
62611;BMP280;48683;48.084;17.272;2022-07-23T02:18:48;100158.09;;;24.39
62611;BMP280;48683;48.084;17.272;2022-07-23T02:21:14;100158.78;;;24.34
62611;BMP280;48683;48.084;17.272;2022-07-23T02:23:39;100165.91;;;24.46
62611;BMP280;48683;48.084;17.272;2022-07-23T02:26:05;100155.91;;;24.43
62611;BMP280;48683;48.084;17.272;2022-07-23T02:28:30;100155.47;;;24.50
62611;BMP280;48683;48.084;17.272;2022-07-23T02:30:56;100151.47;;;24.51
62611;BMP280;48683;48.084;17.272;2022-07-23T02:33:21;100151.22;;;24.49
62611;BMP280;48683;48.084;17.272;2022-07-23T02:35:47;100147.72;;;24.49
62611;BMP280;48683;48.084;17.272;2022-07-23T02:38:12;100151.22;;;24.49
62611;BMP280;48683;48.084;17.272;2022-07-23T02:40:37;100143.31;;;24.37
62611;BMP280;48683;48.084;17.272;2022-07-23T02:43:03;100145.41;;;24.42
62611;BMP280;48683;48.084;17.272;2022-07-23T02:45:28;100149.16;;;24.44
62611;BMP280;48683;48.084;17.272;2022-07-23T02:47:53;100156.78;;;24.35
62611;BMP280;48683;48.084;17.272;2022-07-23T02:50:19;100167.59;;;24.44
62611;BMP280;48683;48.084;17.272;2022-07-23T02:52:44;100172.28;;;24.58
62611;BMP280;48683;48.084;17.272;2022-07-23T02:55:10;100161.91;;;24.47
62611;BMP280;48683;48.084;17.272;2022-07-23T02:57:36;100153.34;;;24.40
62611;BMP280;48683;48.084;17.272;2022-07-23T03:00:01;100150.13;;;24.41
62611;BMP280;48683;48.084;17.272;2022-07-23T03:02:27;100146.28;;;24.33
62611;BMP280;48683;48.084;17.272;2022-07-23T03:04:52;100147.94;;;24.45
62611;BMP280;48683;48.084;17.272;2022-07-23T03:07:18;100154.03;;;24.55
62611;BMP280;48683;48.084;17.272;2022-07-23T03:09:43;100130.38;;;24.37
62611;BMP280;48683;48.084;17.272;2022-07-23T03:12:08;100128.47;;;24.08
62611;BMP280;48683;48.084;17.272;2022-07-23T03:14:34;100116.84;;;23.93
62611;BMP280;48683;48.084;17.272;2022-07-23T03:16:59;100118.16;;;23.63
62611;BMP280;48683;48.084;17.272;2022-07-23T03:19:27;100124.81;;;23.42
62611;BMP280;48683;48.084;17.272;2022-07-23T03:21:52;100142.28;;;23.44
62611;BMP280;48683;48.084;17.272;2022-07-23T03:24:18;100150.22;;;23.42
62611;BMP280;48683;48.084;17.272;2022-07-23T03:26:44;100176.34;;;23.73
62611;BMP280;48683;48.084;17.272;2022-07-23T03:29:09;100164.06;;;23.68
62611;BMP280;48683;48.084;17.272;2022-07-23T03:31:35;100182.91;;;23.95
62611;BMP280;48683;48.084;17.272;2022-07-23T03:34:01;100189.28;;;24.07
62611;BMP280;48683;48.084;17.272;2022-07-23T03:36:26;100196.00;;;24.06
62611;BMP280;48683;48.084;17.272;2022-07-23T03:38:53;100168.78;;;23.68
62611;BMP280;48683;48.084;17.272;2022-07-23T03:41:19;100162.28;;;23.65
62611;BMP280;48683;48.084;17.272;2022-07-23T03:43:44;100176.78;;;23.86
62611;BMP280;48683;48.084;17.272;2022-07-23T03:46:10;100177.03;;;24.02
62611;BMP280;48683;48.084;17.272;2022-07-23T03:48:35;100171.19;;;23.95
62611;BMP280;48683;48.084;17.272;2022-07-23T03:51:01;100185.34;;;23.93
62611;BMP280;48683;48.084;17.272;2022-07-23T03:53:26;100179.19;;;23.98
62611;BMP280;48683;48.084;17.272;2022-07-23T03:55:51;100179.41;;;23.95
62611;BMP280;48683;48.084;17.272;2022-07-23T03:58:17;100188.38;;;23.95
62611;BMP280;48683;48.084;17.272;2022-07-23T04:00:42;100189.59;;;23.94
62611;BMP280;48683;48.084;17.272;2022-07-23T04:03:07;100176.41;;;23.93
62611;BMP280;48683;48.084;17.272;2022-07-23T04:05:33;100177.53;;;23.86
62611;BMP280;48683;48.084;17.272;2022-07-23T04:07:58;100162.28;;;23.65
62611;BMP280;48683;48.084;17.272;2022-07-23T04:10:24;100156.66;;;23.54
62611;BMP280;48683;48.084;17.272;2022-07-23T04:12:49;100160.97;;;23.60
62611;BMP280;48683;48.084;17.272;2022-07-23T04:15:14;100166.31;;;23.70
62611;BMP280;48683;48.084;17.272;2022-07-23T04:17:40;100171.69;;;23.79
62611;BMP280;48683;48.084;17.272;2022-07-23T04:20:05;100192.19;;;23.83
62611;BMP280;48683;48.084;17.272;2022-07-23T04:22:31;100180.31;;;23.72
62611;BMP280;48683;48.084;17.272;2022-07-23T04:24:56;100178.28;;;23.87
62611;BMP280;48683;48.084;17.272;2022-07-23T04:27:22;100162.59;;;23.87
62611;BMP280;48683;48.084;17.272;2022-07-23T04:29:47;100154.28;;;23.82
62611;BMP280;48683;48.084;17.272;2022-07-23T04:32:12;100159.78;;;23.82
62611;BMP280;48683;48.084;17.272;2022-07-23T04:34:37;100161.69;;;23.76
62611;BMP280;48683;48.084;17.272;2022-07-23T04:37:03;100168.09;;;23.87
62611;BMP280;48683;48.084;17.272;2022-07-23T04:39:28;100175.09;;;23.88
62611;BMP280;48683;48.084;17.272;2022-07-23T04:41:54;100169.97;;;23.96
62611;BMP280;48683;48.084;17.272;2022-07-23T04:44:19;100182.28;;;24.06
62611;BMP280;48683;48.084;17.272;2022-07-23T04:46:44;100179.00;;;24.02
62611;BMP280;48683;48.084;17.272;2022-07-23T04:49:10;100173.81;;;24.04
62611;BMP280;48683;48.084;17.272;2022-07-23T04:51:35;100171.28;;;24.00
62611;BMP280;48683;48.084;17.272;2022-07-23T04:54:00;100179.19;;;23.98
62611;BMP280;48683;48.084;17.272;2022-07-23T04:56:26;100179.25;;;23.84
62611;BMP280;48683;48.084;17.272;2022-07-23T04:58:51;100190.78;;;23.88
62611;BMP280;48683;48.084;17.272;2022-07-23T05:01:16;100192.75;;;23.87
62611;BMP280;48683;48.084;17.272;2022-07-23T05:03:42;100201.53;;;23.91
62611;BMP280;48683;48.084;17.272;2022-07-23T05:06:07;100184.22;;;23.85
62611;BMP280;48683;48.084;17.272;2022-07-23T05:08:33;100193.47;;;24.02
62611;BMP280;48683;48.084;17.272;2022-07-23T05:10:58;100197.28;;;24.25
62611;BMP280;48683;48.084;17.272;2022-07-23T05:13:23;100192.28;;;24.44
62611;BMP280;48683;48.084;17.272;2022-07-23T05:15:49;100190.03;;;24.63
62611;BMP280;48683;48.084;17.272;2022-07-23T05:18:14;100190.97;;;24.80
62611;BMP280;48683;48.084;17.272;2022-07-23T05:20:39;100208.19;;;25.00
62611;BMP280;48683;48.084;17.272;2022-07-23T05:23:05;100216.53;;;25.12
62611;BMP280;48683;48.084;17.272;2022-07-23T05:25:30;100210.69;;;25.30
62611;BMP280;48683;48.084;17.272;2022-07-23T05:27:55;100216.44;;;25.52
62611;BMP280;48683;48.084;17.272;2022-07-23T05:30:21;100199.72;;;25.56
62611;BMP280;48683;48.084;17.272;2022-07-23T05:32:46;100209.63;;;25.79
62611;BMP280;48683;48.084;17.272;2022-07-23T05:35:11;100213.28;;;26.02
62611;BMP280;48683;48.084;17.272;2022-07-23T05:37:37;100201.63;;;26.18
62611;BMP280;48683;48.084;17.272;2022-07-23T05:40:08;100204.72;;;26.31
62611;BMP280;48683;48.084;17.272;2022-07-23T05:42:38;100200.28;;;26.44
62611;BMP280;48683;48.084;17.272;2022-07-23T05:45:04;100189.31;;;26.56
62611;BMP280;48683;48.084;17.272;2022-07-23T05:47:44;100185.13;;;26.77
62611;BMP280;48683;48.084;17.272;2022-07-23T05:50:10;100188.44;;;26.92
62611;BMP280;48683;48.084;17.272;2022-07-23T05:52:36;100181.94;;;26.95
62611;BMP280;48683;48.084;17.272;2022-07-23T05:55:02;100186.94;;;27.02
62611;BMP280;48683;48.084;17.272;2022-07-23T05:57:28;100192.22;;;27.11
62611;BMP280;48683;48.084;17.272;2022-07-23T05:59:53;100188.47;;;27.14
62611;BMP280;48683;48.084;17.272;2022-07-23T06:02:18;100181.19;;;27.17
62611;BMP280;48683;48.084;17.272;2022-07-23T06:04:44;100174.94;;;27.22
62611;BMP280;48683;48.084;17.272;2022-07-23T06:07:09;100181.47;;;27.41
62611;BMP280;48683;48.084;17.272;2022-07-23T06:09:34;100178.97;;;27.60
62611;BMP280;48683;48.084;17.272;2022-07-23T06:12:00;100190.75;;;27.71
62611;BMP280;48683;48.084;17.272;2022-07-23T06:14:25;100185.47;;;27.79
62611;BMP280;48683;48.084;17.272;2022-07-23T06:16:50;100183.66;;;27.98
62611;BMP280;48683;48.084;17.272;2022-07-23T06:19:16;100190.19;;;28.12
62611;BMP280;48683;48.084;17.272;2022-07-23T06:21:41;100184.91;;;28.19
62611;BMP280;48683;48.084;17.272;2022-07-23T06:24:06;100187.28;;;28.51
62611;BMP280;48683;48.084;17.272;2022-07-23T06:26:32;100189.19;;;28.72
62611;BMP280;48683;48.084;17.272;2022-07-23T06:28:57;100182.63;;;28.81
62611;BMP280;48683;48.084;17.272;2022-07-23T06:31:22;100200.56;;;28.99
62611;BMP280;48683;48.084;17.272;2022-07-23T06:33:48;100197.59;;;28.97
62611;BMP280;48683;48.084;17.272;2022-07-23T06:36:13;100197.72;;;29.15
62611;BMP280;48683;48.084;17.272;2022-07-23T06:38:38;100194.09;;;29.32
62611;BMP280;48683;48.084;17.272;2022-07-23T06:41:04;100192.75;;;29.44
62611;BMP280;48683;48.084;17.272;2022-07-23T06:43:30;100185.97;;;29.45
62611;BMP280;48683;48.084;17.272;2022-07-23T06:45:56;100179.09;;;29.51
62611;BMP280;48683;48.084;17.272;2022-07-23T06:48:21;100176.16;;;29.44
62611;BMP280;48683;48.084;17.272;2022-07-23T06:50:47;100171.59;;;29.46
62611;BMP280;48683;48.084;17.272;2022-07-23T06:53:13;100182.69;;;29.70
62611;BMP280;48683;48.084;17.272;2022-07-23T06:55:38;100177.59;;;29.80
62611;BMP280;48683;48.084;17.272;2022-07-23T06:58:05;100180.72;;;29.95
62611;BMP280;48683;48.084;17.272;2022-07-23T07:00:30;100188.44;;;30.02
62611;BMP280;48683;48.084;17.272;2022-07-23T07:02:56;100175.66;;;29.99
62611;BMP280;48683;48.084;17.272;2022-07-23T07:05:22;100180.72;;;29.95
62611;BMP280;48683;48.084;17.272;2022-07-23T07:07:48;100178.69;;;29.72
62611;BMP280;48683;48.084;17.272;2022-07-23T07:10:13;100179.34;;;29.53
62611;BMP280;48683;48.084;17.272;2022-07-23T07:12:38;100172.38;;;29.47
62611;BMP280;48683;48.084;17.272;2022-07-23T07:15:04;100167.88;;;29.44
62611;BMP280;48683;48.084;17.272;2022-07-23T07:17:29;100166.69;;;29.63
62611;BMP280;48683;48.084;17.272;2022-07-23T07:19:56;100148.69;;;29.51
62611;BMP280;48683;48.084;17.272;2022-07-23T07:22:21;100163.75;;;29.80
62611;BMP280;48683;48.084;17.272;2022-07-23T07:24:46;100160.22;;;30.04
62611;BMP280;48683;48.084;17.272;2022-07-23T07:27:12;100167.91;;;30.35
62611;BMP280;48683;48.084;17.272;2022-07-23T07:29:37;100164.97;;;30.52
62611;BMP280;48683;48.084;17.272;2022-07-23T07:32:03;100158.06;;;30.58
62611;BMP280;48683;48.084;17.272;2022-07-23T07:34:28;100159.84;;;30.75
62611;BMP280;48683;48.084;17.272;2022-07-23T07:36:54;100158.88;;;30.91
62611;BMP280;48683;48.084;17.272;2022-07-23T07:39:19;100154.28;;;30.93
62611;BMP280;48683;48.084;17.272;2022-07-23T07:41:44;100144.81;;;30.89
62611;BMP280;48683;48.084;17.272;2022-07-23T07:44:10;100149.06;;;31.22
62611;BMP280;48683;48.084;17.272;2022-07-23T07:46:35;100145.03;;;31.23
62611;BMP280;48683;48.084;17.272;2022-07-23T07:49:00;100146.31;;;31.22
62611;BMP280;48683;48.084;17.272;2022-07-23T07:51:26;100155.41;;;31.48
62611;BMP280;48683;48.084;17.272;2022-07-23T07:53:52;100151.19;;;31.61
62611;BMP280;48683;48.084;17.272;2022-07-23T07:56:17;100153.75;;;31.72
62611;BMP280;48683;48.084;17.272;2022-07-23T07:58:42;100154.84;;;31.56
62611;BMP280;48683;48.084;17.272;2022-07-23T08:01:08;100155.78;;;31.58
62611;BMP280;48683;48.084;17.272;2022-07-23T08:03:33;100163.69;;;31.67
62611;BMP280;48683;48.084;17.272;2022-07-23T08:05:58;100156.88;;;31.81
62611;BMP280;48683;48.084;17.272;2022-07-23T08:08:24;100156.00;;;31.99
62611;BMP280;48683;48.084;17.272;2022-07-23T08:10:50;100157.84;;;32.10
62611;BMP280;48683;48.084;17.272;2022-07-23T08:13:16;100152.50;;;32.12
62611;BMP280;48683;48.084;17.272;2022-07-23T08:15:43;100158.16;;;32.20
62611;BMP280;48683;48.084;17.272;2022-07-23T08:18:09;100161.44;;;32.31
62611;BMP280;48683;48.084;17.272;2022-07-23T08:20:34;100159.69;;;32.55
62611;BMP280;48683;48.084;17.272;2022-07-23T08:23:05;100154.19;;;32.28
62611;BMP280;48683;48.084;17.272;2022-07-23T08:25:33;100162.41;;;32.34
62611;BMP280;48683;48.084;17.272;2022-07-23T08:28:00;100162.78;;;32.51
62611;BMP280;48683;48.084;17.272;2022-07-23T08:30:26;100155.03;;;32.36
62611;BMP280;48683;48.084;17.272;2022-07-23T08:32:57;100162.97;;;32.53
62611;BMP280;48683;48.084;17.272;2022-07-23T08:37:57;100167.34;;;32.75
62611;BMP280;48683;48.084;17.272;2022-07-23T08:40:26;100165.59;;;32.85
62611;BMP280;48683;48.084;17.272;2022-07-23T08:42:51;100155.78;;;33.05
62611;BMP280;48683;48.084;17.272;2022-07-23T08:45:22;100160.94;;;33.21
62611;BMP280;48683;48.084;17.272;2022-07-23T08:47:53;100157.78;;;33.17
62611;BMP280;48683;48.084;17.272;2022-07-23T08:50:19;100161.53;;;33.07
62611;BMP280;48683;48.084;17.272;2022-07-23T08:52:45;100172.09;;;33.08
62611;BMP280;48683;48.084;17.272;2022-07-23T08:55:10;100170.03;;;33.22
62611;BMP280;48683;48.084;17.272;2022-07-23T08:57:36;100163.66;;;33.14
62611;BMP280;48683;48.084;17.272;2022-07-23T09:00:02;100172.00;;;33.34
62611;BMP280;48683;48.084;17.272;2022-07-23T09:02:28;100159.22;;;33.39
62611;BMP280;48683;48.084;17.272;2022-07-23T09:04:53;100175.38;;;33.40
62611;BMP280;48683;48.084;17.272;2022-07-23T09:07:18;100162.28;;;33.49
62611;BMP280;48683;48.084;17.272;2022-07-23T09:09:44;100160.50;;;33.59
62611;BMP280;48683;48.084;17.272;2022-07-23T09:12:10;100169.59;;;33.59
62611;BMP280;48683;48.084;17.272;2022-07-23T09:14:43;100159.19;;;33.60
62611;BMP280;48683;48.084;17.272;2022-07-23T09:17:13;100164.41;;;33.63
62611;BMP280;48683;48.084;17.272;2022-07-23T09:19:40;100158.06;;;33.55
62611;BMP280;48683;48.084;17.272;2022-07-23T09:22:26;100168.56;;;33.70
62611;BMP280;48683;48.084;17.272;2022-07-23T09:27:53;100160.47;;;33.79
62611;BMP280;48683;48.084;17.272;2022-07-23T09:30:23;100147.06;;;33.70
62611;BMP280;48683;48.084;17.272;2022-07-23T09:33:13;100152.53;;;33.83
62611;BMP280;48683;48.084;17.272;2022-07-23T09:35:45;100151.41;;;33.86
62611;BMP280;48683;48.084;17.272;2022-07-23T09:38:11;100146.47;;;33.93
62611;BMP280;48683;48.084;17.272;2022-07-23T09:40:37;100148.31;;;33.98
62611;BMP280;48683;48.084;17.272;2022-07-23T09:43:02;100150.22;;;34.03
62611;BMP280;48683;48.084;17.272;2022-07-23T09:45:27;100148.63;;;34.15
62611;BMP280;48683;48.084;17.272;2022-07-23T09:48:13;100154.78;;;34.28
62611;BMP280;48683;48.084;17.272;2022-07-23T09:50:41;100139.94;;;34.26
62611;BMP280;48683;48.084;17.272;2022-07-23T09:53:07;100142.97;;;34.36
62611;BMP280;48683;48.084;17.272;2022-07-23T09:55:34;100147.59;;;34.41
62611;BMP280;48683;48.084;17.272;2022-07-23T09:58:02;100131.28;;;34.52
62611;BMP280;48683;48.084;17.272;2022-07-23T10:00:28;100144.22;;;34.86
62611;BMP280;48683;48.084;17.272;2022-07-23T10:02:54;100130.56;;;34.59
62611;BMP280;48683;48.084;17.272;2022-07-23T10:05:20;100131.19;;;34.73
62611;BMP280;48683;48.084;17.272;2022-07-23T10:07:45;100134.72;;;34.81
62611;BMP280;48683;48.084;17.272;2022-07-23T10:10:11;100122.84;;;34.88
62611;BMP280;48683;48.084;17.272;2022-07-23T10:12:38;100127.50;;;34.93
62611;BMP280;48683;48.084;17.272;2022-07-23T10:15:22;100119.72;;;35.22
62611;BMP280;48683;48.084;17.272;2022-07-23T10:17:48;100103.16;;;35.24
62611;BMP280;48683;48.084;17.272;2022-07-23T10:20:14;100097.78;;;35.18
62611;BMP280;48683;48.084;17.272;2022-07-23T10:22:48;100108.53;;;35.30
62611;BMP280;48683;48.084;17.272;2022-07-23T10:25:26;100116.16;;;35.44
62611;BMP280;48683;48.084;17.272;2022-07-23T10:33:24;100087.28;;;35.64
62611;BMP280;48683;48.084;17.272;2022-07-23T10:36:08;100097.53;;;35.62
62611;BMP280;48683;48.084;17.272;2022-07-23T10:38:46;100099.75;;;35.71
62611;BMP280;48683;48.084;17.272;2022-07-23T10:41:13;100083.44;;;36.00
62611;BMP280;48683;48.084;17.272;2022-07-23T10:43:38;100088.22;;;36.22
62611;BMP280;48683;48.084;17.272;2022-07-23T10:46:24;100087.47;;;36.22
62611;BMP280;48683;48.084;17.272;2022-07-23T10:49:25;100095.53;;;36.10
62611;BMP280;48683;48.084;17.272;2022-07-23T10:54:52;100082.94;;;36.34
62611;BMP280;48683;48.084;17.272;2022-07-23T10:57:27;100078.41;;;36.46
62611;BMP280;48683;48.084;17.272;2022-07-23T11:02:31;100069.28;;;36.45
62611;BMP280;48683;48.084;17.272;2022-07-23T11:05:11;100057.16;;;36.43
62611;BMP280;48683;48.084;17.272;2022-07-23T11:10:39;100044.88;;;36.71
62611;BMP280;48683;48.084;17.272;2022-07-23T11:32:07;100031.78;;;36.81
62611;BMP280;48683;48.084;17.272;2022-07-23T11:34:42;100023.66;;;36.92
62611;BMP280;48683;48.084;17.272;2022-07-23T11:39:57;100025.09;;;36.76
62611;BMP280;48683;48.084;17.272;2022-07-23T11:42:23;100018.22;;;36.94
62611;BMP280;48683;48.084;17.272;2022-07-23T11:44:49;100019.91;;;37.15
62611;BMP280;48683;48.084;17.272;2022-07-23T11:47:15;100016.53;;;37.16
62611;BMP280;48683;48.084;17.272;2022-07-23T11:49:55;100009.53;;;37.25
62611;BMP280;48683;48.084;17.272;2022-07-23T11:52:21;100019.81;;;37.39
62611;BMP280;48683;48.084;17.272;2022-07-23T11:54:58;99999.03;;;37.50
62611;BMP280;48683;48.084;17.272;2022-07-23T11:57:29;99997.50;;;37.49
62611;BMP280;48683;48.084;17.272;2022-07-23T12:00:17;100010.78;;;37.31
62611;BMP280;48683;48.084;17.272;2022-07-23T12:02:51;99993.91;;;37.22
62611;BMP280;48683;48.084;17.272;2022-07-23T12:05:23;100003.13;;;37.15
62611;BMP280;48683;48.084;17.272;2022-07-23T12:07:52;99991.59;;;37.28
62611;BMP280;48683;48.084;17.272;2022-07-23T12:10:21;99993.91;;;37.39
62611;BMP280;48683;48.084;17.272;2022-07-23T12:12:53;99999.66;;;37.41
62611;BMP280;48683;48.084;17.272;2022-07-23T12:15:22;99983.94;;;37.63
62611;BMP280;48683;48.084;17.272;2022-07-23T12:17:49;99994.41;;;37.62
62611;BMP280;48683;48.084;17.272;2022-07-23T12:20:17;99995.22;;;37.38
62611;BMP280;48683;48.084;17.272;2022-07-23T12:22:45;99984.13;;;37.13
62611;BMP280;48683;48.084;17.272;2022-07-23T12:25:14;99991.13;;;37.22
62611;BMP280;48683;48.084;17.272;2022-07-23T12:27:40;99985.34;;;37.37
62611;BMP280;48683;48.084;17.272;2022-07-23T12:30:23;99984.84;;;37.48
62611;BMP280;48683;48.084;17.272;2022-07-23T12:32:51;99972.34;;;37.49
62611;BMP280;48683;48.084;17.272;2022-07-23T12:35:18;99955.59;;;37.76
62611;BMP280;48683;48.084;17.272;2022-07-23T12:37:45;99965.63;;;37.79
62611;BMP280;48683;48.084;17.272;2022-07-23T12:40:32;99955.38;;;37.64
62611;BMP280;48683;48.084;17.272;2022-07-23T12:43:03;99955.69;;;37.68
62611;BMP280;48683;48.084;17.272;2022-07-23T12:45:43;99957.06;;;37.50
62611;BMP280;48683;48.084;17.272;2022-07-23T12:48:16;99952.66;;;37.57
62611;BMP280;48683;48.084;17.272;2022-07-23T12:53:10;99952.84;;;37.59
62611;BMP280;48683;48.084;17.272;2022-07-23T12:55:37;99956.06;;;37.21
62611;BMP280;48683;48.084;17.272;2022-07-23T12:58:07;99956.88;;;37.14
62611;BMP280;48683;48.084;17.272;2022-07-23T13:05:48;99958.50;;;36.82
62611;BMP280;48683;48.084;17.272;2022-07-23T13:08:14;99967.53;;;36.73
62611;BMP280;48683;48.084;17.272;2022-07-23T13:10:39;99967.13;;;36.27
62611;BMP280;48683;48.084;17.272;2022-07-23T13:13:09;99973.72;;;36.22
62611;BMP280;48683;48.084;17.272;2022-07-23T13:15:35;99975.09;;;36.06
62611;BMP280;48683;48.084;17.272;2022-07-23T13:18:00;99985.16;;;36.01
62611;BMP280;48683;48.084;17.272;2022-07-23T13:20:25;99990.22;;;35.95
62611;BMP280;48683;48.084;17.272;2022-07-23T13:22:51;99994.81;;;35.76
62611;BMP280;48683;48.084;17.272;2022-07-23T13:25:16;100008.19;;;35.77
62611;BMP280;48683;48.084;17.272;2022-07-23T13:27:42;100003.56;;;35.57
62611;BMP280;48683;48.084;17.272;2022-07-23T13:30:08;100007.72;;;35.48
62611;BMP280;48683;48.084;17.272;2022-07-23T13:32:34;100014.81;;;35.34
62611;BMP280;48683;48.084;17.272;2022-07-23T13:34:59;100020.06;;;35.22
62611;BMP280;48683;48.084;17.272;2022-07-23T13:37:25;100026.75;;;35.04
62611;BMP280;48683;48.084;17.272;2022-07-23T13:39:51;100028.63;;;34.71
62611;BMP280;48683;48.084;17.272;2022-07-23T13:42:16;100032.91;;;34.72
62611;BMP280;48683;48.084;17.272;2022-07-23T13:44:42;100041.78;;;34.63
62611;BMP280;48683;48.084;17.272;2022-07-23T13:47:08;100040.69;;;34.51
62611;BMP280;48683;48.084;17.272;2022-07-23T13:49:33;100048.81;;;34.42
62611;BMP280;48683;48.084;17.272;2022-07-23T13:51:59;100059.28;;;34.13
62611;BMP280;48683;48.084;17.272;2022-07-23T13:54:24;100058.34;;;34.03
62611;BMP280;48683;48.084;17.272;2022-07-23T13:56:50;100070.94;;;33.96
62611;BMP280;48683;48.084;17.272;2022-07-23T13:59:15;100072.34;;;33.82
62611;BMP280;48683;48.084;17.272;2022-07-23T14:01:40;100081.81;;;33.79
62611;BMP280;48683;48.084;17.272;2022-07-23T14:04:06;100078.66;;;33.54
62611;BMP280;48683;48.084;17.272;2022-07-23T14:06:31;100076.94;;;33.44
62611;BMP280;48683;48.084;17.272;2022-07-23T14:08:56;100078.38;;;33.37
62611;BMP280;48683;48.084;17.272;2022-07-23T14:11:21;100070.75;;;33.30
62611;BMP280;48683;48.084;17.272;2022-07-23T14:13:47;100076.84;;;33.28
62611;BMP280;48683;48.084;17.272;2022-07-23T14:16:12;100068.81;;;33.17
62611;BMP280;48683;48.084;17.272;2022-07-23T14:18:38;100061.59;;;33.01
62611;BMP280;48683;48.084;17.272;2022-07-23T14:21:03;100064.31;;;32.93
62611;BMP280;48683;48.084;17.272;2022-07-23T14:23:28;100063.91;;;32.89
62611;BMP280;48683;48.084;17.272;2022-07-23T14:25:53;100050.56;;;32.88
62611;BMP280;48683;48.084;17.272;2022-07-23T14:28:19;100045.00;;;32.88
62611;BMP280;48683;48.084;17.272;2022-07-23T14:30:44;100037.16;;;32.79
62611;BMP280;48683;48.084;17.272;2022-07-23T14:33:09;100026.53;;;32.70
62611;BMP280;48683;48.084;17.272;2022-07-23T14:35:34;100023.34;;;32.66